Airfield :
LOGIN :

Register | Disclaimer

   EN    FR    IT 

 










Legend :    VFR   Marginal VFR   IFR   Intensive IFR   Very Intensive IFR
Visi :
Ceiling :
>= 8 km
>= 3000ft
5 to 8 km
1000 to 3000 ft
1500m to 5 km
500 to 1000 ft
800 to 1500m
200 to 500 ft
< 800m
< 200 ft
Symbols :   Thunderstorms  Fog  Heavy snow  Heavy precipitations  Wind > 20 kt
SIGMETs :     Misc.  Thunderstorms  Icing  Turbulence  Mountain Waves  Volcanic Ashes






- Airport Elevation : 1367 ft
- IATA code : FDH


EDNY - Friedrichshafen

CURRENT METAR :
  • 170220Z AUTO 03004KT 6000 // OVC004/// 06/05 Q1020

EXPIRED METARs :
  • 170150Z AUTO 05004KT 6000 // SCT004/// BKN006/// 06/06 Q1020
  • 170120Z AUTO 06004KT 6000 // BKN006/// 06/05 Q1020
  • 170050Z AUTO 04003KT 6000 // BKN007/// BKN009/// 04/04 Q1020
  • 170020Z AUTO 34001KT 6000 // BKN008/// 03/03 Q1020
  • 162350Z AUTO 01003KT 5000 2400 // FEW008/// 04/03 Q1020

TAF TAF EDNY
Valid from the 17 at 00:00 until the 18 at 00:00 UTC


162300Z 1700/1724 VRB02KT 4500 BR FEW006
BECMG 1700/1704 2000 BR BKN003
BECMG 1708/1710 6000 BKN007
BECMG 1710/1713 FEW015
TEMPO 1712/1716 23005KT
BECMG 1720/1724 2000 BCFG



MET'MAP, your aeronautical weather chart ! - Copyright ORBIFLY December 2007 - Disclaimer

ORBIFLY MET'MAP TEAM :

Programming & Development : Alexandra Zaïnal
Concept & original design : Baudouin d'Aumeries
Assistance for programming : Marc-Olivier Méhu
Technical & hardware support : Manuel Goepfert

Contact : metmap@orbifly.com




SOURCES & CREDITS :

   NOAA